createdAt,value
2023-02-11T00:01:35.597Z,103320.28
2023-02-11T00:04:05.790Z,103317.69
2023-02-11T00:06:35.617Z,103312.44
2023-02-11T00:09:04.799Z,103312.44
2023-02-11T00:11:32.557Z,103305.47
2023-02-11T00:14:03.451Z,103293.28
2023-02-11T00:16:32.343Z,103301.94
2023-02-11T00:19:01.998Z,103299.31
2023-02-11T00:21:29.952Z,103310.66
2023-02-11T00:23:59.862Z,103310.66
2023-02-11T00:26:35.242Z,103311.56
2023-02-11T00:29:04.643Z,103308.03
2023-02-11T00:31:33.176Z,103297.59
2023-02-11T00:34:00.918Z,103294.09
2023-02-11T00:36:30.129Z,103294.09
2023-02-11T00:38:59.881Z,103293.22
2023-02-11T00:41:29.552Z,103298.44
2023-02-11T00:44:01.742Z,103300.19
2023-02-11T00:46:30.520Z,103299.31
2023-02-11T00:48:58.110Z,103301.06
2023-02-11T00:51:28.618Z,103299.38
2023-02-11T00:53:59.071Z,103301.13
2023-02-11T00:56:28.006Z,103307.16
2023-02-11T00:58:57.079Z,103299.31
2023-02-11T01:01:25.298Z,103315.88
2023-02-11T01:03:53.064Z,103298.44
2023-02-11T01:06:23.349Z,103314.13
2023-02-11T01:08:50.953Z,103318.50
2023-02-11T01:11:21.583Z,103310.66
2023-02-11T01:13:50.360Z,103310.63
2023-02-11T01:16:20.173Z,103316.75
2023-02-11T01:18:48.058Z,103320.25
2023-02-11T01:21:19.156Z,103321.97
2023-02-11T01:23:46.885Z,103320.19
2023-02-11T01:26:14.403Z,103320.19
2023-02-11T01:28:44.509Z,103306.25
2023-02-11T01:31:12.136Z,103302.75
2023-02-11T01:33:40.275Z,103299.25
2023-02-11T01:36:12.745Z,103294.03
2023-02-11T01:38:40.989Z,103296.59
2023-02-11T01:41:13.349Z,103295.72
2023-02-11T01:43:49.735Z,103280.91
2023-02-11T01:46:38.646Z,103264.34
2023-02-11T01:49:12.610Z,103245.13
2023-02-11T01:51:46.875Z,103246.00
2023-02-11T01:54:43.810Z,103248.56
2023-02-11T01:57:27.361Z,103261.50
2023-02-11T02:00:01.982Z,103263.19
2023-02-11T02:03:00.463Z,103260.56
2023-02-11T02:05:53.083Z,103259.66
2023-02-11T02:08:51.064Z,103267.44
2023-02-11T02:11:18.681Z,103289.13
2023-02-11T02:13:46.435Z,103296.13
2023-02-11T02:16:19.688Z,103300.56
2023-02-11T02:19:19.637Z,103285.66
2023-02-11T02:22:10.489Z,103285.66
2023-02-11T02:25:15.066Z,103280.44
2023-02-11T02:28:13.344Z,103269.97
2023-02-11T02:31:17.844Z,103255.22
2023-02-11T02:34:09.569Z,103246.44
2023-02-11T02:37:15.135Z,103251.63
2023-02-11T02:39:48.501Z,103242.84
2023-02-11T02:42:18.652Z,103249.00
2023-02-11T02:44:55.817Z,103256.00
2023-02-11T02:47:23.407Z,103263.81
2023-02-11T02:49:52.202Z,103269.97
2023-02-11T02:52:53.838Z,103267.34
2023-02-11T02:55:51.654Z,103269.03
2023-02-11T02:58:34.955Z,103268.13
2023-02-11T03:01:57.766Z,103262.03
2023-02-11T03:05:02.828Z,103255.91
2023-02-11T03:07:56.986Z,103242.81
2023-02-11T03:10:33.063Z,103249.72
2023-02-11T03:13:03.741Z,103247.03
2023-02-11T03:15:40.663Z,103245.28
2023-02-11T03:18:13.616Z,103248.72
2023-02-11T03:20:45.625Z,103250.38
2023-02-11T03:23:29.008Z,103253.00
2023-02-11T03:26:05.594Z,103245.91
2023-02-11T03:29:05.006Z,103247.59
2023-02-11T03:32:17.654Z,103247.44
2023-02-11T03:35:01.437Z,103258.72
2023-02-11T03:37:50.722Z,103254.28
2023-02-11T03:40:27.411Z,103255.06
2023-02-11T03:43:01.112Z,103247.19
2023-02-11T03:45:30.484Z,103246.28
2023-02-11T03:48:06.171Z,103242.78
2023-02-11T03:50:36.968Z,103235.81
2023-02-11T03:53:06.349Z,103243.59
2023-02-11T03:55:39.888Z,103240.97
2023-02-11T03:58:09.095Z,103227.81
2023-02-11T04:00:41.141Z,103229.56
2023-02-11T04:03:10.993Z,103232.09
2023-02-11T04:05:38.978Z,103225.13
2023-02-11T04:08:07.058Z,103219.03
2023-02-11T04:10:34.926Z,103212.91
2023-02-11T04:13:02.415Z,103210.25
2023-02-11T04:15:30.220Z,103211.16
2023-02-11T04:17:57.917Z,103205.03
2023-02-11T04:20:25.482Z,103205.03
2023-02-11T04:22:53.220Z,103219.78
2023-02-11T04:25:21.212Z,103224.16
2023-02-11T04:27:48.697Z,103229.41
2023-02-11T04:30:16.441Z,103234.69
2023-02-11T04:32:43.980Z,103239.88
2023-02-11T04:35:11.616Z,103239.06
2023-02-11T04:37:39.465Z,103246.03
2023-02-11T04:40:07.791Z,103256.53
2023-02-11T04:42:35.321Z,103240.06
2023-02-11T04:45:03.491Z,103242.75
2023-02-11T04:47:31.044Z,103233.16
2023-02-11T04:49:58.603Z,103230.59
2023-02-11T04:52:26.310Z,103234.16
2023-02-11T04:54:53.818Z,103231.59
2023-02-11T04:57:21.325Z,103230.78
2023-02-11T04:59:49.080Z,103239.50
2023-02-11T05:02:16.717Z,103241.25
2023-02-11T05:04:44.209Z,103242.16
2023-02-11T05:07:11.870Z,103239.56
2023-02-11T05:09:39.346Z,103237.88
2023-02-11T05:12:07.060Z,103233.59
2023-02-11T05:14:34.772Z,103233.59
2023-02-11T05:17:02.400Z,103243.25
2023-02-11T05:19:31.983Z,103231.94
2023-02-11T05:22:03.033Z,103229.34
2023-02-11T05:24:34.982Z,103226.78
2023-02-11T05:27:02.571Z,103226.72
2023-02-11T05:29:30.133Z,103226.78
2023-02-11T05:31:59.621Z,103224.22
2023-02-11T05:34:27.309Z,103228.56
2023-02-11T05:36:55.187Z,103227.75
2023-02-11T05:39:22.727Z,103224.28
2023-02-11T05:41:50.386Z,103226.06
2023-02-11T05:44:18.107Z,103222.59
2023-02-11T05:46:45.765Z,103228.69
2023-02-11T05:49:13.281Z,103226.06
2023-02-11T05:51:41.138Z,103230.44
2023-02-11T05:54:08.700Z,103231.38
2023-02-11T05:56:36.183Z,103234.91
2023-02-11T05:59:04.089Z,103234.03
2023-02-11T06:01:31.665Z,103234.03
2023-02-11T06:03:59.347Z,103224.47
2023-02-11T06:06:26.996Z,103231.47
2023-02-11T06:08:54.639Z,103237.56
2023-02-11T06:11:22.448Z,103233.22
2023-02-11T06:13:50.071Z,103240.25
2023-02-11T06:16:17.903Z,103244.63
2023-02-11T06:18:45.430Z,103249.00
2023-02-11T06:21:13.055Z,103238.56
2023-02-11T06:23:40.579Z,103244.66
2023-02-11T06:26:15.589Z,103241.25
2023-02-11T06:28:44.314Z,103246.47
2023-02-11T06:31:14.661Z,103250.88
2023-02-11T06:33:42.375Z,103249.09
2023-02-11T06:36:18.234Z,103256.09
2023-02-11T06:38:46.695Z,103254.31
2023-02-11T06:41:17.586Z,103254.31
2023-02-11T06:43:45.138Z,103250.88
2023-02-11T06:46:12.825Z,103250.88
2023-02-11T06:48:43.066Z,103239.56
2023-02-11T06:51:13.434Z,103249.00
2023-02-11T06:53:45.067Z,103251.63
2023-02-11T06:56:16.192Z,103249.81
2023-02-11T06:58:43.872Z,103248.97
2023-02-11T07:01:16.021Z,103249.06
2023-02-11T07:03:46.690Z,103256.09
2023-02-11T07:06:22.425Z,103257.91
2023-02-11T07:08:50.579Z,103254.41
2023-02-11T07:11:24.427Z,103250.94
2023-02-11T07:13:55.320Z,103256.16
2023-02-11T07:16:23.714Z,103271.03
2023-02-11T07:18:51.851Z,103269.28
2023-02-11T07:21:24.315Z,103264.13
2023-02-11T07:23:52.697Z,103265.84
2023-02-11T07:26:23.543Z,103273.72
2023-02-11T07:28:53.100Z,103277.22
2023-02-11T07:31:26.757Z,103279.00
2023-02-11T07:33:59.170Z,103277.25
2023-02-11T07:36:29.350Z,103280.78
2023-02-11T07:38:57.387Z,103282.59
2023-02-11T07:41:26.400Z,103275.63
2023-02-11T07:43:54.980Z,103284.34
2023-02-11T07:46:28.178Z,103294.03
2023-02-11T07:48:56.341Z,103294.91
2023-02-11T07:51:30.371Z,103297.59
2023-02-11T07:54:00.562Z,103296.75
2023-02-11T07:56:29.671Z,103303.75
2023-02-11T07:59:02.446Z,103294.19
2023-02-11T08:01:30.940Z,103292.53
2023-02-11T08:04:01.487Z,103296.06
2023-02-11T08:06:34.634Z,103304.78
2023-02-11T08:09:08.908Z,103300.47
2023-02-11T08:11:36.742Z,103299.63
2023-02-11T08:14:04.521Z,103302.28
2023-02-11T08:16:35.323Z,103303.16
2023-02-11T08:19:07.746Z,103311.88
2023-02-11T08:21:35.559Z,103307.56
2023-02-11T08:24:03.900Z,103308.56
2023-02-11T08:26:35.201Z,103318.19
2023-02-11T08:29:10.420Z,103309.50
2023-02-11T08:31:42.562Z,103318.28
2023-02-11T08:34:11.984Z,103316.59
2023-02-11T08:36:42.416Z,103309.66
2023-02-11T08:39:20.232Z,103313.22
2023-02-11T08:41:52.312Z,103314.13
2023-02-11T08:44:21.161Z,103321.91
2023-02-11T08:46:50.206Z,103322.00
2023-02-11T08:49:17.960Z,103321.22
2023-02-11T08:51:46.861Z,103317.84
2023-02-11T08:54:15.783Z,103324.94
2023-02-11T08:56:44.087Z,103319.81
2023-02-11T08:59:15.422Z,103324.28
2023-02-11T09:01:44.271Z,103323.41
2023-02-11T09:04:11.995Z,103327.91
2023-02-11T09:06:40.138Z,103329.78
2023-02-11T09:09:13.650Z,103328.16
2023-02-11T09:11:44.054Z,103330.84
2023-02-11T09:14:21.738Z,103338.78
2023-02-11T09:16:51.496Z,103331.84
2023-02-11T09:19:19.933Z,103335.41
2023-02-11T09:21:47.788Z,103339.88
2023-02-11T09:24:15.775Z,103348.72
2023-02-11T09:26:44.046Z,103356.66
2023-02-11T09:29:12.901Z,103348.88
2023-02-11T09:31:41.142Z,103356.81
2023-02-11T09:34:08.884Z,103350.78
2023-02-11T09:36:39.632Z,103353.44
2023-02-11T09:39:17.126Z,103354.41
2023-02-11T09:42:20.251Z,103354.47
2023-02-11T09:44:47.932Z,103361.50
2023-02-11T09:47:33.106Z,103366.84
2023-02-11T09:50:07.296Z,103367.75
2023-02-11T09:52:47.609Z,103373.06
2023-02-11T09:55:47.521Z,103371.41
2023-02-11T09:58:24.780Z,103369.72
2023-02-11T10:01:41.506Z,103378.56
2023-02-11T10:04:18.242Z,103381.22
2023-02-11T10:06:53.000Z,103383.06
2023-02-11T10:10:03.649Z,103395.38
2023-02-11T10:13:10.595Z,103392.00
2023-02-11T10:15:48.803Z,103397.28
2023-02-11T10:18:29.386Z,103407.03
2023-02-11T10:21:24.509Z,103404.56
2023-02-11T10:23:57.351Z,103406.31
2023-02-11T10:26:30.963Z,103402.91
2023-02-11T10:29:14.050Z,103410.78
2023-02-11T10:31:45.008Z,103412.53
2023-02-11T10:34:14.924Z,103419.59
2023-02-11T10:36:45.018Z,103421.38
2023-02-11T10:39:20.726Z,103417.06
2023-02-11T10:41:57.611Z,103417.97
2023-02-11T10:45:17.785Z,103425.88
2023-02-11T10:47:45.596Z,103416.19
2023-02-11T10:50:35.251Z,103420.59
2023-02-11T10:53:20.761Z,103422.34
2023-02-11T10:55:53.938Z,103422.28
2023-02-11T10:58:35.900Z,103427.56
2023-02-11T11:01:08.022Z,103427.44
2023-02-11T11:03:50.061Z,103427.44
2023-02-11T11:06:32.454Z,103433.59
2023-02-11T11:09:01.119Z,103431.94
2023-02-11T11:11:28.812Z,103434.69
2023-02-11T11:14:01.223Z,103437.44
2023-02-11T11:16:36.094Z,103432.25
2023-02-11T11:19:06.608Z,103437.59
2023-02-11T11:21:55.849Z,103434.28
2023-02-11T11:24:35.316Z,103435.25
2023-02-11T11:27:05.371Z,103438.78
2023-02-11T11:29:50.413Z,103435.38
2023-02-11T11:32:28.336Z,103436.47
2023-02-11T11:35:01.209Z,103441.91
2023-02-11T11:37:33.161Z,103436.84
2023-02-11T11:40:15.523Z,103436.09
2023-02-11T11:42:43.798Z,103421.28
2023-02-11T11:45:19.914Z,103423.09
2023-02-11T11:48:09.673Z,103424.03
2023-02-11T11:50:47.640Z,103426.72
2023-02-11T11:53:23.608Z,103420.69
2023-02-11T11:55:59.855Z,103419.78
2023-02-11T11:58:30.159Z,103416.22
2023-02-11T12:01:22.855Z,103416.28
2023-02-11T12:05:01.429Z,103409.31
2023-02-11T12:08:28.139Z,103412.97
2023-02-11T12:11:10.674Z,103402.75
2023-02-11T12:14:27.426Z,103409.19
2023-02-11T12:17:50.959Z,103409.47
2023-02-11T12:20:43.617Z,103409.59
2023-02-11T12:23:38.710Z,103411.44
2023-02-11T12:26:23.463Z,103403.59
2023-02-11T12:29:57.851Z,103405.41
2023-02-11T12:32:51.336Z,103396.66
2023-02-11T12:36:14.121Z,103401.16
2023-02-11T12:39:16.133Z,103393.38
2023-02-11T12:42:29.534Z,103400.53
2023-02-11T12:45:27.471Z,103397.06
2023-02-11T12:48:10.567Z,103387.41
2023-02-11T12:51:05.898Z,103395.41
2023-02-11T12:54:08.104Z,103384.97
2023-02-11T12:57:18.490Z,103375.44
2023-02-11T13:00:00.701Z,103380.72
2023-02-11T13:02:49.377Z,103378.19
2023-02-11T13:05:58.787Z,103380.06
2023-02-11T13:08:31.456Z,103396.88
2023-02-11T13:11:29.750Z,103397.88
2023-02-11T13:14:19.350Z,103394.47
2023-02-11T13:16:50.778Z,103393.59
2023-02-11T13:19:33.041Z,103390.19
2023-02-11T13:22:43.610Z,103387.63
2023-02-11T13:25:36.317Z,103385.94
2023-02-11T13:28:47.786Z,103393.03
2023-02-11T13:31:16.773Z,103394.78
2023-02-11T13:33:45.790Z,103378.16
2023-02-11T13:36:27.750Z,103380.78
2023-02-11T13:39:21.424Z,103379.97
2023-02-11T13:41:52.254Z,103377.34
2023-02-11T13:44:26.587Z,103375.56
2023-02-11T13:47:07.173Z,103379.09
2023-02-11T13:49:52.221Z,103377.41
2023-02-11T13:52:27.475Z,103387.94
2023-02-11T13:55:12.198Z,103381.72
2023-02-11T13:57:41.902Z,103382.56
2023-02-11T14:00:34.680Z,103385.22
2023-02-11T14:03:30.296Z,103389.63
2023-02-11T14:06:30.611Z,103391.44
2023-02-11T14:09:22.346Z,103393.19
2023-02-11T14:11:55.339Z,103386.13
2023-02-11T14:14:28.900Z,103389.66
2023-02-11T14:16:59.796Z,103387.00
2023-02-11T14:19:43.868Z,103391.38
2023-02-11T14:22:25.976Z,103398.38
2023-02-11T14:25:04.674Z,103397.50
2023-02-11T14:27:51.484Z,103399.25
2023-02-11T14:30:46.517Z,103395.69
2023-02-11T14:34:06.924Z,103393.03
2023-02-11T14:36:52.854Z,103392.13
2023-02-11T14:39:23.148Z,103392.06
2023-02-11T14:41:51.669Z,103398.16
2023-02-11T14:44:27.439Z,103394.63
2023-02-11T14:46:56.160Z,103402.47
2023-02-11T14:49:31.195Z,103398.09
2023-02-11T14:52:27.597Z,103397.19
2023-02-11T14:55:09.085Z,103401.47
2023-02-11T14:57:37.961Z,103404.09
2023-02-11T15:00:19.130Z,103399.69
2023-02-11T15:02:47.078Z,103404.97
2023-02-11T15:05:19.369Z,103403.25
2023-02-11T15:08:00.736Z,103398.88
2023-02-11T15:10:43.938Z,103405.88
2023-02-11T15:13:21.630Z,103400.63
2023-02-11T15:15:55.900Z,103408.50
2023-02-11T15:18:33.943Z,103408.47
2023-02-11T15:21:01.978Z,103408.41
2023-02-11T15:23:31.723Z,103420.69
2023-02-11T15:26:04.631Z,103430.31
2023-02-11T15:28:35.447Z,103432.94
2023-02-11T15:31:17.838Z,103432.06
2023-02-11T15:33:46.919Z,103432.91
2023-02-11T15:36:17.669Z,103428.44
2023-02-11T15:38:45.263Z,103432.81
2023-02-11T15:41:38.431Z,103429.28
2023-02-11T15:44:05.946Z,103430.97
2023-02-11T15:46:39.797Z,103432.69
2023-02-11T15:49:19.222Z,103430.88
2023-02-11T15:51:47.602Z,103435.19
2023-02-11T15:54:22.192Z,103441.28
2023-02-11T15:56:55.456Z,103437.75
2023-02-11T15:59:52.210Z,103439.50
2023-02-11T16:02:25.650Z,103436.78
2023-02-11T16:05:06.069Z,103435.88
2023-02-11T16:07:49.812Z,103429.72
2023-02-11T16:10:36.093Z,103436.69
2023-02-11T16:13:06.442Z,103436.66
2023-02-11T16:15:33.874Z,103430.47
2023-02-11T16:18:12.683Z,103434.88
2023-02-11T16:20:40.886Z,103430.41
2023-02-11T16:23:08.583Z,103429.50
2023-02-11T16:25:37.424Z,103431.19
2023-02-11T16:28:05.457Z,103433.75
2023-02-11T16:30:40.527Z,103440.72
2023-02-11T16:33:11.298Z,103432.84
2023-02-11T16:35:39.048Z,103438.91
2023-02-11T16:38:06.525Z,103438.88
2023-02-11T16:40:35.685Z,103434.44
2023-02-11T16:43:03.152Z,103432.66
2023-02-11T16:45:31.750Z,103440.50
2023-02-11T16:48:00.130Z,103446.56
2023-02-11T16:50:28.344Z,103444.78
2023-02-11T16:52:55.883Z,103443.84
2023-02-11T16:55:23.449Z,103450.84
2023-02-11T16:57:51.149Z,103457.78
2023-02-11T17:00:21.032Z,103455.13
2023-02-11T17:02:48.840Z,103456.84
2023-02-11T17:05:23.066Z,103462.91
2023-02-11T17:07:51.916Z,103457.59
2023-02-11T17:10:23.554Z,103469.84
2023-02-11T17:12:52.558Z,103457.44
2023-02-11T17:15:20.234Z,103469.63
2023-02-11T17:17:48.169Z,103481.03
2023-02-11T17:20:16.382Z,103478.38
2023-02-11T17:22:43.886Z,103488.03
2023-02-11T17:25:11.837Z,103485.34
2023-02-11T17:27:39.550Z,103487.94
2023-02-11T17:30:08.689Z,103490.53
2023-02-11T17:32:37.425Z,103483.44
2023-02-11T17:35:08.317Z,103493.03
2023-02-11T17:37:35.841Z,103485.94
2023-02-11T17:40:03.894Z,103501.56
2023-02-11T17:42:31.413Z,103499.72
2023-02-11T17:44:59.132Z,103494.44
2023-02-11T17:47:26.703Z,103494.41
2023-02-11T17:49:54.290Z,103501.31
2023-02-11T17:52:21.861Z,103499.47
2023-02-11T17:54:49.878Z,103498.53
2023-02-11T17:57:17.631Z,103496.66
2023-02-11T17:59:45.343Z,103498.38
2023-02-11T18:02:13.134Z,103509.69
2023-02-11T18:04:40.804Z,103512.28
2023-02-11T18:07:08.390Z,103510.47
2023-02-11T18:09:40.407Z,103511.28
2023-02-11T18:12:08.903Z,103511.22
2023-02-11T18:14:40.419Z,103512.91
2023-02-11T18:17:08.173Z,103521.56
2023-02-11T18:19:36.629Z,103517.16
2023-02-11T18:22:04.460Z,103518.84
2023-02-11T18:24:32.074Z,103528.44
2023-02-11T18:26:59.699Z,103538.00
2023-02-11T18:29:27.758Z,103534.44
2023-02-11T18:31:57.627Z,103538.81
2023-02-11T18:34:25.935Z,103536.16
2023-02-11T18:36:54.218Z,103528.28
2023-02-11T18:39:24.252Z,103537.84
2023-02-11T18:41:56.776Z,103537.84
2023-02-11T18:44:25.803Z,103533.47
2023-02-11T18:46:54.196Z,103536.94
2023-02-11T18:49:21.802Z,103537.78
2023-02-11T18:51:49.537Z,103538.66
2023-02-11T18:54:17.066Z,103543.97
2023-02-11T18:56:44.986Z,103536.06
2023-02-11T18:59:12.739Z,103540.47
2023-02-11T19:01:43.262Z,103548.28
2023-02-11T19:04:11.427Z,103547.41
2023-02-11T19:06:39.339Z,103551.72
2023-02-11T19:09:15.450Z,103550.03
2023-02-11T19:11:53.872Z,103549.94
2023-02-11T19:14:28.718Z,103551.78
2023-02-11T19:17:00.486Z,103560.53
2023-02-11T19:19:32.392Z,103562.19
2023-02-11T19:22:02.438Z,103566.56
2023-02-11T19:24:30.837Z,103573.56
2023-02-11T19:27:03.214Z,103564.81
2023-02-11T19:29:35.282Z,103570.06
2023-02-11T19:32:08.501Z,103565.69
2023-02-11T19:34:41.406Z,103575.28
2023-02-11T19:37:12.693Z,103577.00
2023-02-11T19:39:42.714Z,103573.50
2023-02-11T19:42:10.728Z,103574.38
2023-02-11T19:44:38.625Z,103583.16
2023-02-11T19:47:06.910Z,103584.88
2023-02-11T19:49:34.588Z,103591.88
2023-02-11T19:52:02.294Z,103596.28
2023-02-11T19:54:29.799Z,103594.53
2023-02-11T19:56:58.046Z,103597.16
2023-02-11T19:59:25.763Z,103597.16
2023-02-11T20:01:53.905Z,103594.53
2023-02-11T20:04:21.568Z,103605.03
2023-02-11T20:06:49.525Z,103614.59
2023-02-11T20:09:17.079Z,103605.84
2023-02-11T20:11:45.001Z,103603.22
2023-02-11T20:14:15.220Z,103605.91
2023-02-11T20:16:49.253Z,103612.00
2023-02-11T20:19:22.014Z,103624.25
2023-02-11T20:21:53.332Z,103628.63
2023-02-11T20:24:22.082Z,103625.13
2023-02-11T20:26:51.636Z,103623.28
2023-02-11T20:29:19.348Z,103629.41
2023-02-11T20:31:48.962Z,103632.84
2023-02-11T20:34:18.184Z,103627.59
2023-02-11T20:36:51.793Z,103636.34
2023-02-11T20:39:23.526Z,103630.16
2023-02-11T20:41:53.674Z,103630.16
2023-02-11T20:44:22.639Z,103639.78
2023-02-11T20:46:54.143Z,103644.16
2023-02-11T20:49:23.596Z,103640.44
2023-02-11T20:51:53.585Z,103641.31
2023-02-11T20:54:23.226Z,103644.03
2023-02-11T20:56:53.623Z,103647.59
2023-02-11T20:59:21.815Z,103651.03
2023-02-11T21:01:54.100Z,103651.09
2023-02-11T21:04:29.779Z,103652.84
2023-02-11T21:07:01.394Z,103658.91
2023-02-11T21:09:32.501Z,103662.41
2023-02-11T21:12:00.824Z,103664.13
2023-02-11T21:14:29.413Z,103666.75
2023-02-11T21:16:57.619Z,103664.13
2023-02-11T21:19:25.233Z,103667.66
2023-02-11T21:21:54.782Z,103662.34
2023-02-11T21:24:22.952Z,103664.13
2023-02-11T21:26:50.478Z,103668.47
2023-02-11T21:29:18.075Z,103663.22
2023-02-11T21:31:46.241Z,103657.91
2023-02-11T21:34:15.787Z,103671.03
2023-02-11T21:36:45.317Z,103674.47
2023-02-11T21:39:14.513Z,103672.72
2023-02-11T21:41:41.953Z,103688.44
2023-02-11T21:44:09.549Z,103688.44
2023-02-11T21:46:37.350Z,103694.53
2023-02-11T21:49:05.065Z,103684.91
2023-02-11T21:51:32.539Z,103696.25
2023-02-11T21:54:02.686Z,103705.00
2023-02-11T21:56:33.884Z,103699.75
2023-02-11T21:59:02.025Z,103699.69
2023-02-11T22:01:35.305Z,103704.94
2023-02-11T22:04:04.315Z,103696.97
2023-02-11T22:06:34.601Z,103689.09
2023-02-11T22:09:07.077Z,103699.59
2023-02-11T22:11:35.394Z,103696.91
2023-02-11T22:14:03.536Z,103691.63
2023-02-11T22:16:31.680Z,103693.34
2023-02-11T22:18:59.407Z,103690.72
2023-02-11T22:21:27.056Z,103688.94
2023-02-11T22:23:56.062Z,103698.53
2023-02-11T22:26:27.125Z,103699.41
2023-02-11T22:28:55.967Z,103698.50
2023-02-11T22:31:30.519Z,103695.88
2023-02-11T22:34:00.237Z,103697.56
2023-02-11T22:36:35.650Z,103700.19
2023-02-11T22:39:08.297Z,103699.25
2023-02-11T22:41:38.162Z,103700.91
2023-02-11T22:44:05.739Z,103700.13
2023-02-11T22:46:33.449Z,103706.19
2023-02-11T22:49:00.983Z,103697.38
2023-02-11T22:51:30.448Z,103699.13
2023-02-11T22:54:05.985Z,103698.25
2023-02-11T22:56:35.033Z,103695.56
2023-02-11T22:59:08.352Z,103699.06
2023-02-11T23:01:35.971Z,103692.03
2023-02-11T23:04:06.629Z,103705.13
2023-02-11T23:06:35.134Z,103706.00
2023-02-11T23:09:09.889Z,103702.50
2023-02-11T23:11:38.016Z,103706.88
2023-02-11T23:14:05.657Z,103706.00
2023-02-11T23:16:34.787Z,103708.59
2023-02-11T23:19:09.272Z,103708.59
2023-02-11T23:21:39.316Z,103705.94
2023-02-11T23:24:14.951Z,103705.06
2023-02-11T23:26:44.167Z,103704.16
2023-02-11T23:29:12.543Z,103700.66
2023-02-11T23:31:45.227Z,103709.38
2023-02-11T23:34:20.291Z,103708.50
2023-02-11T23:36:48.033Z,103705.00
2023-02-11T23:39:16.968Z,103707.63
2023-02-11T23:41:45.728Z,103701.50
2023-02-11T23:44:13.286Z,103699.72
2023-02-11T23:46:40.856Z,103703.22
2023-02-11T23:49:08.847Z,103708.50
2023-02-11T23:51:36.480Z,103712.81
2023-02-11T23:54:04.263Z,103717.22
2023-02-11T23:56:32.291Z,103716.31
2023-02-11T23:58:59.842Z,103711.97
